sensor_id;sensor_type;location;lat;lon;timestamp;pressure;altitude;pressure_sealevel;temperature;humidity
59274;BME280;45044;41.572;24.730;2022-10-16T00:01:18;91936.63;;;5.51;100.00
59274;BME280;45044;41.572;24.730;2022-10-16T00:03:47;91932.50;;;5.62;100.00
59274;BME280;45044;41.572;24.730;2022-10-16T00:06:15;91931.41;;;5.63;100.00
59274;BME280;45044;41.572;24.730;2022-10-16T00:08:42;91935.34;;;5.57;100.00
59274;BME280;45044;41.572;24.730;2022-10-16T00:11:16;91931.41;;;5.63;100.00
59274;BME280;45044;41.572;24.730;2022-10-16T00:13:45;91929.25;;;5.41;100.00
59274;BME280;45044;41.572;24.730;2022-10-16T00:16:13;91939.22;;;5.51;100.00
59274;BME280;45044;41.572;24.730;2022-10-16T00:18:40;91923.81;;;5.33;100.00
59274;BME280;45044;41.572;24.730;2022-10-16T00:21:16;91938.03;;;5.23;100.00
59274;BME280;45044;41.572;24.730;2022-10-16T00:23:44;91936.59;;;5.13;100.00
59274;BME280;45044;41.572;24.730;2022-10-16T00:26:15;91925.75;;;5.24;100.00
59274;BME280;45044;41.572;24.730;2022-10-16T00:28:42;91929.34;;;4.85;100.00
59274;BME280;45044;41.572;24.730;2022-10-16T00:31:10;91946.72;;;4.81;100.00
59274;BME280;45044;41.572;24.730;2022-10-16T00:33:39;91933.31;;;5.04;100.00
59274;BME280;45044;41.572;24.730;2022-10-16T00:36:08;91936.91;;;5.12;100.00
59274;BME280;45044;41.572;24.730;2022-10-16T00:38:36;91935.13;;;5.37;100.00
59274;BME280;45044;41.572;24.730;2022-10-16T00:41:09;91936.19;;;5.49;100.00
59274;BME280;45044;41.572;24.730;2022-10-16T00:43:47;91924.69;;;5.37;100.00
59274;BME280;45044;41.572;24.730;2022-10-16T00:46:21;91940.75;;;5.27;100.00
59274;BME280;45044;41.572;24.730;2022-10-16T00:48:56;91942.69;;;5.18;100.00
59274;BME280;45044;41.572;24.730;2022-10-16T00:51:30;91930.13;;;4.98;100.00
59274;BME280;45044;41.572;24.730;2022-10-16T00:53:59;91947.69;;;5.23;100.00
59274;BME280;45044;41.572;24.730;2022-10-16T00:56:26;91932.06;;;5.23;100.00
59274;BME280;45044;41.572;24.730;2022-10-16T00:58:53;91934.88;;;5.18;100.00
59274;BME280;45044;41.572;24.730;2022-10-16T01:01:20;91930.94;;;5.24;100.00
59274;BME280;45044;41.572;24.730;2022-10-16T01:03:47;91937.16;;;5.32;100.00
59274;BME280;45044;41.572;24.730;2022-10-16T01:06:23;91936.59;;;5.13;100.00
59274;BME280;45044;41.572;24.730;2022-10-16T01:09:05;91946.13;;;5.09;100.00
59274;BME280;45044;41.572;24.730;2022-10-16T01:17:05;91950.75;;;4.91;100.00
59274;BME280;45044;41.572;24.730;2022-10-16T01:19:50;91951.13;;;4.47;100.00
59274;BME280;45044;41.572;24.730;2022-10-16T01:22:20;91952.63;;;4.69;100.00
59274;BME280;45044;41.572;24.730;2022-10-16T01:24:49;91945.19;;;4.80;100.00
59274;BME280;45044;41.572;24.730;2022-10-16T01:27:27;91940.25;;;4.66;100.00
59274;BME280;45044;41.572;24.730;2022-10-16T01:32:33;91961.09;;;4.45;100.00
59274;BME280;45044;41.572;24.730;2022-10-16T01:37:41;91954.56;;;4.38;100.00
59274;BME280;45044;41.572;24.730;2022-10-16T01:40:12;91954.06;;;4.45;100.00
59274;BME280;45044;41.572;24.730;2022-10-16T01:42:49;91956.72;;;4.36;100.00
59274;BME280;45044;41.572;24.730;2022-10-16T01:45:20;91967.97;;;4.28;100.00
59274;BME280;45044;41.572;24.730;2022-10-16T01:47:49;91956.66;;;4.24;100.00
59274;BME280;45044;41.572;24.730;2022-10-16T01:50:18;91964.09;;;4.34;100.00
59274;BME280;45044;41.572;24.730;2022-10-16T01:52:49;91971.00;;;4.30;100.00
59274;BME280;45044;41.572;24.730;2022-10-16T01:55:28;91945.66;;;3.97;100.00
59274;BME280;45044;41.572;24.730;2022-10-16T01:57:58;91962.34;;;3.95;100.00
59274;BME280;45044;41.572;24.730;2022-10-16T02:00:26;91967.75;;;3.90;100.00
59274;BME280;45044;41.572;24.730;2022-10-16T02:02:53;91957.94;;;3.87;100.00
59274;BME280;45044;41.572;24.730;2022-10-16T02:05:30;91970.28;;;3.99;100.00
59274;BME280;45044;41.572;24.730;2022-10-16T02:07:57;91968.88;;;4.02;100.00
59274;BME280;45044;41.572;24.730;2022-10-16T02:10:28;91971.84;;;3.91;100.00
59274;BME280;45044;41.572;24.730;2022-10-16T02:13:16;91957.09;;;3.74;100.00
59274;BME280;45044;41.572;24.730;2022-10-16T02:15:44;91983.78;;;3.92;100.00
59274;BME280;45044;41.572;24.730;2022-10-16T02:18:11;91975.97;;;3.62;100.00
59274;BME280;45044;41.572;24.730;2022-10-16T02:20:56;91978.19;;;3.42;100.00
59274;BME280;45044;41.572;24.730;2022-10-16T02:23:50;91984.19;;;3.34;100.00
59274;BME280;45044;41.572;24.730;2022-10-16T02:26:28;91987.63;;;3.56;100.00
59274;BME280;45044;41.572;24.730;2022-10-16T02:29:01;91992.63;;;3.70;100.00
59274;BME280;45044;41.572;24.730;2022-10-16T02:31:32;91986.19;;;3.67;100.00
59274;BME280;45044;41.572;24.730;2022-10-16T02:34:03;91997.03;;;3.69;100.00
59274;BME280;45044;41.572;24.730;2022-10-16T02:36:32;91998.63;;;3.53;100.00
59274;BME280;45044;41.572;24.730;2022-10-16T02:39:02;91998.44;;;3.67;100.00
59274;BME280;45044;41.572;24.730;2022-10-16T02:41:35;92001.22;;;3.62;100.00
59274;BME280;45044;41.572;24.730;2022-10-16T02:44:02;92000.59;;;3.65;100.00
59274;BME280;45044;41.572;24.730;2022-10-16T02:46:29;91996.22;;;3.47;100.00
59274;BME280;45044;41.572;24.730;2022-10-16T02:48:56;91996.59;;;3.67;100.00
59274;BME280;45044;41.572;24.730;2022-10-16T02:51:22;91988.19;;;3.70;100.00
59274;BME280;45044;41.572;24.730;2022-10-16T02:53:49;91995.59;;;3.51;100.00
59274;BME280;45044;41.572;24.730;2022-10-16T02:56:16;91996.59;;;3.19;100.00
59274;BME280;45044;41.572;24.730;2022-10-16T02:58:42;92002.13;;;3.00;100.00
59274;BME280;45044;41.572;24.730;2022-10-16T03:01:09;92001.78;;;3.19;100.00
59274;BME280;45044;41.572;24.730;2022-10-16T03:03:36;92004.22;;;3.25;100.00
59274;BME280;45044;41.572;24.730;2022-10-16T03:06:02;92003.16;;;3.26;100.00
59274;BME280;45044;41.572;24.730;2022-10-16T03:08:29;92002.66;;;3.41;100.00
59274;BME280;45044;41.572;24.730;2022-10-16T03:10:56;92004.19;;;3.33;100.00
59274;BME280;45044;41.572;24.730;2022-10-16T03:13:23;92007.31;;;3.18;100.00
59274;BME280;45044;41.572;24.730;2022-10-16T03:15:49;92019.19;;;3.28;100.00
59274;BME280;45044;41.572;24.730;2022-10-16T03:18:16;91996.75;;;3.23;100.00
59274;BME280;45044;41.572;24.730;2022-10-16T03:20:44;92022.84;;;3.35;100.00
59274;BME280;45044;41.572;24.730;2022-10-16T03:23:11;92029.00;;;3.13;100.00
59274;BME280;45044;41.572;24.730;2022-10-16T03:25:38;92030.22;;;3.25;100.00
59274;BME280;45044;41.572;24.730;2022-10-16T03:28:05;92033.00;;;2.84;100.00
59274;BME280;45044;41.572;24.730;2022-10-16T03:30:32;92032.25;;;2.92;100.00
59274;BME280;45044;41.572;24.730;2022-10-16T03:32:59;92034.69;;;2.89;100.00
59274;BME280;45044;41.572;24.730;2022-10-16T03:35:25;92024.91;;;2.94;100.00
59274;BME280;45044;41.572;24.730;2022-10-16T03:37:52;92037.25;;;3.15;100.00
59274;BME280;45044;41.572;24.730;2022-10-16T03:40:20;92025.66;;;3.13;100.00
59274;BME280;45044;41.572;24.730;2022-10-16T03:42:46;92026.56;;;3.08;100.00
59274;BME280;45044;41.572;24.730;2022-10-16T03:45:13;92033.63;;;2.63;100.00
59274;BME280;45044;41.572;24.730;2022-10-16T03:47:40;92028.41;;;2.90;100.00
59274;BME280;45044;41.572;24.730;2022-10-16T03:50:08;92032.69;;;2.77;100.00
59274;BME280;45044;41.572;24.730;2022-10-16T03:52:36;92037.31;;;2.80;100.00
59274;BME280;45044;41.572;24.730;2022-10-16T03:55:03;92040.34;;;2.82;100.00
59274;BME280;45044;41.572;24.730;2022-10-16T03:57:30;92027.34;;;2.82;100.00
59274;BME280;45044;41.572;24.730;2022-10-16T03:59:57;92037.75;;;2.91;100.00
59274;BME280;45044;41.572;24.730;2022-10-16T04:02:23;92039.59;;;2.90;100.00
59274;BME280;45044;41.572;24.730;2022-10-16T04:04:50;92049.94;;;2.55;100.00
59274;BME280;45044;41.572;24.730;2022-10-16T04:07:17;92027.19;;;2.69;100.00
59274;BME280;45044;41.572;24.730;2022-10-16T04:09:44;92033.00;;;2.84;100.00
59274;BME280;45044;41.572;24.730;2022-10-16T04:12:10;92035.75;;;2.96;100.00
59274;BME280;45044;41.572;24.730;2022-10-16T04:14:37;92025.81;;;2.90;100.00
59274;BME280;45044;41.572;24.730;2022-10-16T04:17:04;92028.13;;;2.73;100.00
59274;BME280;45044;41.572;24.730;2022-10-16T04:19:30;92008.25;;;2.42;100.00
59274;BME280;45044;41.572;24.730;2022-10-16T04:21:57;92032.09;;;2.62;100.00
59274;BME280;45044;41.572;24.730;2022-10-16T04:24:24;92031.19;;;2.58;100.00
59274;BME280;45044;41.572;24.730;2022-10-16T04:26:51;92034.09;;;2.65;100.00
59274;BME280;45044;41.572;24.730;2022-10-16T04:29:17;92032.09;;;2.62;100.00
59274;BME280;45044;41.572;24.730;2022-10-16T04:31:44;92023.84;;;2.51;100.00
59274;BME280;45044;41.572;24.730;2022-10-16T04:34:11;92027.97;;;2.43;100.00
59274;BME280;45044;41.572;24.730;2022-10-16T04:36:38;92037.81;;;2.06;100.00
59274;BME280;45044;41.572;24.730;2022-10-16T04:39:04;92041.31;;;2.10;100.00
59274;BME280;45044;41.572;24.730;2022-10-16T04:41:31;92020.84;;;1.90;100.00
59274;BME280;45044;41.572;24.730;2022-10-16T04:43:58;92040.78;;;2.31;100.00
59274;BME280;45044;41.572;24.730;2022-10-16T04:46:25;92044.13;;;2.31;100.00
59274;BME280;45044;41.572;24.730;2022-10-16T04:48:51;92036.31;;;2.22;100.00
59274;BME280;45044;41.572;24.730;2022-10-16T04:51:18;92050.13;;;1.91;100.00
59274;BME280;45044;41.572;24.730;2022-10-16T04:53:45;92050.94;;;2.09;100.00
59274;BME280;45044;41.572;24.730;2022-10-16T04:56:12;92046.72;;;2.40;100.00
59274;BME280;45044;41.572;24.730;2022-10-16T04:58:38;92042.56;;;2.12;100.00
59274;BME280;45044;41.572;24.730;2022-10-16T05:01:05;92054.44;;;2.05;100.00
59274;BME280;45044;41.572;24.730;2022-10-16T05:03:32;92060.13;;;2.15;100.00
59274;BME280;45044;41.572;24.730;2022-10-16T05:05:58;92069.22;;;1.95;100.00
59274;BME280;45044;41.572;24.730;2022-10-16T05:08:25;92058.03;;;1.86;100.00
59274;BME280;45044;41.572;24.730;2022-10-16T05:10:52;92057.97;;;2.09;100.00
59274;BME280;45044;41.572;24.730;2022-10-16T05:13:18;92057.53;;;2.24;100.00
59274;BME280;45044;41.572;24.730;2022-10-16T05:15:48;92057.06;;;2.13;100.00
59274;BME280;45044;41.572;24.730;2022-10-16T05:18:16;92071.31;;;2.34;100.00
59274;BME280;45044;41.572;24.730;2022-10-16T05:20:43;92033.88;;;2.17;100.00
59274;BME280;45044;41.572;24.730;2022-10-16T05:23:10;92074.94;;;2.24;100.00
59274;BME280;45044;41.572;24.730;2022-10-16T05:25:38;92081.56;;;2.57;100.00
59274;BME280;45044;41.572;24.730;2022-10-16T05:28:05;92091.88;;;2.21;100.00
59274;BME280;45044;41.572;24.730;2022-10-16T05:30:32;92078.94;;;2.30;100.00
59274;BME280;45044;41.572;24.730;2022-10-16T05:32:59;92095.53;;;2.20;100.00
59274;BME280;45044;41.572;24.730;2022-10-16T05:35:26;92096.50;;;2.42;100.00
59274;BME280;45044;41.572;24.730;2022-10-16T05:37:52;92098.69;;;2.75;100.00
59274;BME280;45044;41.572;24.730;2022-10-16T05:40:25;92103.25;;;2.52;100.00
59274;BME280;45044;41.572;24.730;2022-10-16T05:42:55;92099.25;;;2.46;100.00
59274;BME280;45044;41.572;24.730;2022-10-16T05:45:22;92107.84;;;2.64;100.00
59274;BME280;45044;41.572;24.730;2022-10-16T05:47:49;92077.91;;;2.49;100.00
59274;BME280;45044;41.572;24.730;2022-10-16T05:50:16;92109.41;;;3.01;100.00
59274;BME280;45044;41.572;24.730;2022-10-16T05:52:42;92110.63;;;3.30;100.00
59274;BME280;45044;41.572;24.730;2022-10-16T05:55:09;92094.25;;;3.29;100.00
59274;BME280;45044;41.572;24.730;2022-10-16T05:57:36;92108.16;;;4.38;100.00
59274;BME280;45044;41.572;24.730;2022-10-16T06:00:04;92091.44;;;5.80;100.00
59274;BME280;45044;41.572;24.730;2022-10-16T06:02:31;92104.31;;;7.39;100.00
59274;BME280;45044;41.572;24.730;2022-10-16T06:04:57;92099.94;;;8.37;100.00
59274;BME280;45044;41.572;24.730;2022-10-16T06:07:24;92103.00;;;9.90;100.00
59274;BME280;45044;41.572;24.730;2022-10-16T06:09:52;92098.53;;;10.92;86.85
59274;BME280;45044;41.572;24.730;2022-10-16T06:12:19;92106.72;;;12.21;77.91
59274;BME280;45044;41.572;24.730;2022-10-16T06:14:46;92094.63;;;11.78;75.24
59274;BME280;45044;41.572;24.730;2022-10-16T06:17:14;92099.00;;;13.03;68.66
59274;BME280;45044;41.572;24.730;2022-10-16T06:19:40;92108.41;;;13.82;63.84
59274;BME280;45044;41.572;24.730;2022-10-16T06:22:07;92110.75;;;14.35;60.57
59274;BME280;45044;41.572;24.730;2022-10-16T06:24:34;92103.50;;;15.19;57.84
59274;BME280;45044;41.572;24.730;2022-10-16T06:27:01;92089.94;;;16.00;54.31
59274;BME280;45044;41.572;24.730;2022-10-16T06:29:27;92094.22;;;16.39;53.02
59274;BME280;45044;41.572;24.730;2022-10-16T06:31:54;92101.38;;;17.31;50.53
59274;BME280;45044;41.572;24.730;2022-10-16T06:34:21;92091.31;;;16.23;51.88
59274;BME280;45044;41.572;24.730;2022-10-16T06:36:48;92115.25;;;14.09;57.62
59274;BME280;45044;41.572;24.730;2022-10-16T06:39:14;92109.97;;;14.96;56.15
59274;BME280;45044;41.572;24.730;2022-10-16T06:41:41;92117.00;;;16.33;52.57
59274;BME280;45044;41.572;24.730;2022-10-16T06:44:08;92102.84;;;15.87;53.27
59274;BME280;45044;41.572;24.730;2022-10-16T06:46:35;92085.66;;;17.47;49.75
59274;BME280;45044;41.572;24.730;2022-10-16T06:49:02;92117.19;;;18.36;47.75
59274;BME280;45044;41.572;24.730;2022-10-16T06:51:28;92117.41;;;15.53;52.48
59274;BME280;45044;41.572;24.730;2022-10-16T06:53:56;92094.28;;;18.18;48.86
59274;BME280;45044;41.572;24.730;2022-10-16T06:56:31;92119.81;;;19.56;45.19
59274;BME280;45044;41.572;24.730;2022-10-16T06:58:59;92113.28;;;18.92;45.46
59274;BME280;45044;41.572;24.730;2022-10-16T07:01:26;92113.16;;;19.23;45.00
59274;BME280;45044;41.572;24.730;2022-10-16T07:03:53;92124.69;;;19.61;45.42
59274;BME280;45044;41.572;24.730;2022-10-16T07:06:23;92117.34;;;20.06;44.88
59274;BME280;45044;41.572;24.730;2022-10-16T07:08:51;92121.13;;;17.65;47.55
59274;BME280;45044;41.572;24.730;2022-10-16T07:11:21;92121.56;;;17.28;49.92
59274;BME280;45044;41.572;24.730;2022-10-16T07:13:48;92120.22;;;19.13;46.88
59274;BME280;45044;41.572;24.730;2022-10-16T07:16:26;92115.19;;;20.34;43.30
59274;BME280;45044;41.572;24.730;2022-10-16T07:18:55;92111.97;;;20.59;42.65
59274;BME280;45044;41.572;24.730;2022-10-16T07:24:01;92110.66;;;18.68;46.78
59274;BME280;45044;41.572;24.730;2022-10-16T07:26:31;92105.84;;;21.09;41.77
59274;BME280;45044;41.572;24.730;2022-10-16T07:28:59;92096.22;;;19.54;42.82
59274;BME280;45044;41.572;24.730;2022-10-16T07:31:27;92113.63;;;18.94;45.04
59274;BME280;45044;41.572;24.730;2022-10-16T07:33:54;92086.03;;;19.29;44.23
59274;BME280;45044;41.572;24.730;2022-10-16T07:36:21;92094.38;;;18.62;46.37
59274;BME280;45044;41.572;24.730;2022-10-16T07:38:48;92098.09;;;20.15;43.00
59274;BME280;45044;41.572;24.730;2022-10-16T07:41:20;92099.69;;;21.85;40.50
59274;BME280;45044;41.572;24.730;2022-10-16T07:43:51;92100.22;;;21.20;41.61
59274;BME280;45044;41.572;24.730;2022-10-16T07:46:19;92099.09;;;21.34;41.30
59274;BME280;45044;41.572;24.730;2022-10-16T07:48:46;92099.59;;;22.67;38.32
59274;BME280;45044;41.572;24.730;2022-10-16T07:51:19;92093.44;;;21.75;39.37
59274;BME280;45044;41.572;24.730;2022-10-16T07:53:47;92099.69;;;20.29;42.33
59274;BME280;45044;41.572;24.730;2022-10-16T07:56:14;92095.13;;;18.87;44.54
59274;BME280;45044;41.572;24.730;2022-10-16T07:58:42;92084.03;;;20.64;42.52
59274;BME280;45044;41.572;24.730;2022-10-16T08:01:10;92093.22;;;19.52;45.40
59274;BME280;45044;41.572;24.730;2022-10-16T08:03:38;92090.41;;;19.80;42.27
59274;BME280;45044;41.572;24.730;2022-10-16T08:06:07;92083.13;;;21.60;39.79
59274;BME280;45044;41.572;24.730;2022-10-16T08:08:34;92089.00;;;22.24;39.07
59274;BME280;45044;41.572;24.730;2022-10-16T08:11:01;92082.03;;;20.52;41.65
59274;BME280;45044;41.572;24.730;2022-10-16T08:13:31;92072.94;;;21.98;40.00
59274;BME280;45044;41.572;24.730;2022-10-16T08:15:58;92087.63;;;21.63;38.96
59274;BME280;45044;41.572;24.730;2022-10-16T08:18:25;92087.59;;;21.93;37.78
59274;BME280;45044;41.572;24.730;2022-10-16T08:20:56;92079.59;;;22.06;38.30
59274;BME280;45044;41.572;24.730;2022-10-16T08:23:24;92079.34;;;22.66;37.83
59274;BME280;45044;41.572;24.730;2022-10-16T08:25:53;92070.28;;;21.55;39.85
59274;BME280;45044;41.572;24.730;2022-10-16T08:28:21;92083.53;;;18.97;44.05
59274;BME280;45044;41.572;24.730;2022-10-16T08:30:48;92078.97;;;19.79;43.35
59274;BME280;45044;41.572;24.730;2022-10-16T08:33:14;92079.47;;;21.54;39.07
59274;BME280;45044;41.572;24.730;2022-10-16T08:35:41;92077.25;;;20.59;40.83
59274;BME280;45044;41.572;24.730;2022-10-16T08:38:08;92068.16;;;20.57;40.22
59274;BME280;45044;41.572;24.730;2022-10-16T08:40:36;92072.44;;;18.54;43.84
59274;BME280;45044;41.572;24.730;2022-10-16T08:43:12;92067.94;;;18.75;43.70
59274;BME280;45044;41.572;24.730;2022-10-16T08:48:38;92068.06;;;19.53;42.19
59274;BME280;45044;41.572;24.730;2022-10-16T08:52:04;92062.44;;;20.05;42.24
59274;BME280;45044;41.572;24.730;2022-10-16T08:54:46;92060.78;;;19.37;41.58
59274;BME280;45044;41.572;24.730;2022-10-16T08:57:20;92071.97;;;18.36;43.05
59274;BME280;45044;41.572;24.730;2022-10-16T08:59:50;92070.81;;;20.07;40.71
59274;BME280;45044;41.572;24.730;2022-10-16T09:02:37;92072.84;;;19.21;41.66
59274;BME280;45044;41.572;24.730;2022-10-16T09:07:58;92070.41;;;20.42;39.30
59274;BME280;45044;41.572;24.730;2022-10-16T09:13:48;92062.88;;;22.02;37.70
59274;BME280;45044;41.572;24.730;2022-10-16T09:16:31;92062.66;;;20.31;38.21
59274;BME280;45044;41.572;24.730;2022-10-16T09:19:13;92064.31;;;20.58;38.15
59274;BME280;45044;41.572;24.730;2022-10-16T09:21:44;92067.75;;;20.42;37.95
59274;BME280;45044;41.572;24.730;2022-10-16T09:24:16;92058.88;;;20.95;38.02
59274;BME280;45044;41.572;24.730;2022-10-16T09:26:46;92062.44;;;20.88;37.94
59274;BME280;45044;41.572;24.730;2022-10-16T09:29:14;92048.81;;;19.82;39.08
59274;BME280;45044;41.572;24.730;2022-10-16T09:31:41;92055.56;;;20.41;38.71
59274;BME280;45044;41.572;24.730;2022-10-16T09:34:27;92055.41;;;20.48;40.53
59274;BME280;45044;41.572;24.730;2022-10-16T09:36:57;92055.53;;;19.70;39.32
59274;BME280;45044;41.572;24.730;2022-10-16T09:39:25;92047.31;;;20.18;38.74
59274;BME280;45044;41.572;24.730;2022-10-16T09:41:52;92040.28;;;20.08;40.31
59274;BME280;45044;41.572;24.730;2022-10-16T09:44:29;92047.56;;;20.24;39.83
59274;BME280;45044;41.572;24.730;2022-10-16T09:47:16;92044.66;;;20.98;37.83
59274;BME280;45044;41.572;24.730;2022-10-16T09:50:03;92045.53;;;20.62;37.51
59274;BME280;45044;41.572;24.730;2022-10-16T09:52:33;92045.84;;;20.97;39.77
59274;BME280;45044;41.572;24.730;2022-10-16T09:55:13;92054.38;;;20.25;39.83
59274;BME280;45044;41.572;24.730;2022-10-16T10:00:18;92044.06;;;20.90;37.40
59274;BME280;45044;41.572;24.730;2022-10-16T10:02:46;92043.13;;;20.67;37.54
59274;BME280;45044;41.572;24.730;2022-10-16T10:05:24;92034.91;;;20.75;38.15
59274;BME280;45044;41.572;24.730;2022-10-16T10:07:59;92037.34;;;19.65;39.24
59274;BME280;45044;41.572;24.730;2022-10-16T10:10:32;92040.28;;;20.41;39.32
59274;BME280;45044;41.572;24.730;2022-10-16T10:12:59;92042.81;;;21.25;38.75
59274;BME280;45044;41.572;24.730;2022-10-16T10:15:34;92037.59;;;22.29;38.04
59274;BME280;45044;41.572;24.730;2022-10-16T10:18:18;92030.31;;;21.64;36.71
59274;BME280;45044;41.572;24.730;2022-10-16T10:20:45;92022.25;;;21.77;36.91
59274;BME280;45044;41.572;24.730;2022-10-16T10:23:25;92037.88;;;20.47;38.77
59274;BME280;45044;41.572;24.730;2022-10-16T10:26:16;92041.03;;;20.42;38.36
59274;BME280;45044;41.572;24.730;2022-10-16T10:36:43;92039.00;;;21.26;38.92
59274;BME280;45044;41.572;24.730;2022-10-16T10:39:27;92033.84;;;21.18;38.47
59274;BME280;45044;41.572;24.730;2022-10-16T10:47:47;92039.56;;;21.47;38.77
59274;BME280;45044;41.572;24.730;2022-10-16T11:07:00;92014.09;;;21.42;38.21
59274;BME280;45044;41.572;24.730;2022-10-16T11:09:34;92017.53;;;20.53;38.60
59274;BME280;45044;41.572;24.730;2022-10-16T11:12:18;92021.75;;;20.51;37.72
59274;BME280;45044;41.572;24.730;2022-10-16T11:14:53;92016.28;;;21.17;36.87
59274;BME280;45044;41.572;24.730;2022-10-16T11:20:23;92003.44;;;21.12;37.02
59274;BME280;45044;41.572;24.730;2022-10-16T11:22:53;92019.28;;;21.20;38.07
59274;BME280;45044;41.572;24.730;2022-10-16T11:39:00;92022.88;;;21.00;37.22
59274;BME280;45044;41.572;24.730;2022-10-16T11:41:42;92019.72;;;21.87;37.72
59274;BME280;45044;41.572;24.730;2022-10-16T11:55:28;92019.66;;;21.35;37.35
59274;BME280;45044;41.572;24.730;2022-10-16T11:58:03;92016.06;;;21.68;36.26
59274;BME280;45044;41.572;24.730;2022-10-16T12:00:56;92016.41;;;21.96;36.21
59274;BME280;45044;41.572;24.730;2022-10-16T12:03:38;92023.94;;;21.88;36.70
59274;BME280;45044;41.572;24.730;2022-10-16T12:08:40;92012.72;;;19.94;38.18
59274;BME280;45044;41.572;24.730;2022-10-16T12:11:19;92030.44;;;20.38;39.01
59274;BME280;45044;41.572;24.730;2022-10-16T12:13:46;92028.28;;;20.66;37.73
59274;BME280;45044;41.572;24.730;2022-10-16T12:18:43;92035.41;;;18.64;40.09
59274;BME280;45044;41.572;24.730;2022-10-16T12:21:12;92013.63;;;18.69;40.35
59274;BME280;45044;41.572;24.730;2022-10-16T12:23:50;92032.69;;;18.43;40.52
59274;BME280;45044;41.572;24.730;2022-10-16T12:26:29;92041.53;;;18.37;41.93
59274;BME280;45044;41.572;24.730;2022-10-16T12:29:13;92042.34;;;18.58;41.57
59274;BME280;45044;41.572;24.730;2022-10-16T12:31:45;92049.00;;;18.22;41.29
59274;BME280;45044;41.572;24.730;2022-10-16T12:34:43;92030.66;;;18.27;41.31
59274;BME280;45044;41.572;24.730;2022-10-16T12:37:23;92047.84;;;18.47;41.57
59274;BME280;45044;41.572;24.730;2022-10-16T12:39:52;92054.53;;;18.03;41.33
59274;BME280;45044;41.572;24.730;2022-10-16T12:44:55;92064.53;;;17.68;41.85
59274;BME280;45044;41.572;24.730;2022-10-16T12:49:58;92062.69;;;17.92;40.58
59274;BME280;45044;41.572;24.730;2022-10-16T12:52:38;92058.41;;;17.40;40.90
59274;BME280;45044;41.572;24.730;2022-10-16T12:55:15;92055.78;;;17.36;41.49
59274;BME280;45044;41.572;24.730;2022-10-16T13:20:00;92091.09;;;16.94;40.62
59274;BME280;45044;41.572;24.730;2022-10-16T13:28:11;92088.84;;;16.47;41.31
59274;BME280;45044;41.572;24.730;2022-10-16T13:30:41;92090.41;;;16.44;41.42
59274;BME280;45044;41.572;24.730;2022-10-16T13:36:02;92096.03;;;15.86;41.66
59274;BME280;45044;41.572;24.730;2022-10-16T13:38:31;92088.91;;;15.79;41.93
59274;BME280;45044;41.572;24.730;2022-10-16T13:41:01;92088.88;;;15.83;42.83
59274;BME280;45044;41.572;24.730;2022-10-16T13:43:49;92097.59;;;15.76;43.90
59274;BME280;45044;41.572;24.730;2022-10-16T13:46:19;92099.41;;;15.93;43.45
59274;BME280;45044;41.572;24.730;2022-10-16T13:49:02;92109.72;;;15.77;42.16
59274;BME280;45044;41.572;24.730;2022-10-16T13:51:30;92103.66;;;15.80;42.50
59274;BME280;45044;41.572;24.730;2022-10-16T13:53:58;92109.06;;;15.51;43.48
59274;BME280;45044;41.572;24.730;2022-10-16T13:56:27;92112.13;;;15.45;43.24
59274;BME280;45044;41.572;24.730;2022-10-16T13:59:02;92108.00;;;15.37;43.96
59274;BME280;45044;41.572;24.730;2022-10-16T14:01:55;92112.16;;;15.31;43.74
59274;BME280;45044;41.572;24.730;2022-10-16T14:04:23;92109.19;;;15.14;43.88
59274;BME280;45044;41.572;24.730;2022-10-16T14:06:51;92114.81;;;15.31;44.23
59274;BME280;45044;41.572;24.730;2022-10-16T14:09:24;92118.19;;;15.42;44.53
59274;BME280;45044;41.572;24.730;2022-10-16T14:12:03;92098.19;;;15.23;44.11
59274;BME280;45044;41.572;24.730;2022-10-16T14:14:54;92118.19;;;15.39;45.77
59274;BME280;45044;41.572;24.730;2022-10-16T14:17:25;92120.94;;;14.91;45.00
59274;BME280;45044;41.572;24.730;2022-10-16T14:19:58;92119.06;;;14.84;45.58
59274;BME280;45044;41.572;24.730;2022-10-16T14:22:42;92128.13;;;14.98;45.38
59274;BME280;45044;41.572;24.730;2022-10-16T14:27:59;92130.78;;;14.94;45.98
59274;BME280;45044;41.572;24.730;2022-10-16T14:30:28;92135.69;;;15.00;45.63
59274;BME280;45044;41.572;24.730;2022-10-16T14:33:01;92134.94;;;14.92;46.23
59274;BME280;45044;41.572;24.730;2022-10-16T14:35:33;92134.19;;;14.69;46.21
59274;BME280;45044;41.572;24.730;2022-10-16T14:38:02;92123.19;;;14.16;48.25
59274;BME280;45044;41.572;24.730;2022-10-16T14:40:32;92131.13;;;14.23;47.93
59274;BME280;45044;41.572;24.730;2022-10-16T14:43:00;92140.97;;;14.19;48.42
59274;BME280;45044;41.572;24.730;2022-10-16T14:45:30;92145.47;;;14.11;48.38
59274;BME280;45044;41.572;24.730;2022-10-16T14:47:59;92147.72;;;14.09;48.99
59274;BME280;45044;41.572;24.730;2022-10-16T14:50:27;92147.63;;;13.76;50.33
59274;BME280;45044;41.572;24.730;2022-10-16T14:52:54;92144.50;;;13.52;51.21
59274;BME280;45044;41.572;24.730;2022-10-16T14:55:21;92150.44;;;13.35;52.10
59274;BME280;45044;41.572;24.730;2022-10-16T14:57:53;92156.38;;;13.13;53.33
59274;BME280;45044;41.572;24.730;2022-10-16T15:00:26;92149.31;;;12.68;55.68
59274;BME280;45044;41.572;24.730;2022-10-16T15:02:52;92171.13;;;12.65;59.77
59274;BME280;45044;41.572;24.730;2022-10-16T15:05:27;92140.84;;;12.48;60.35
59274;BME280;45044;41.572;24.730;2022-10-16T15:07:54;92178.72;;;12.74;61.40
59274;BME280;45044;41.572;24.730;2022-10-16T15:10:23;92180.34;;;12.90;61.70
59274;BME280;45044;41.572;24.730;2022-10-16T15:12:50;92186.78;;;12.96;59.92
59274;BME280;45044;41.572;24.730;2022-10-16T15:17:47;92187.72;;;12.69;63.30